Time;durP1;ratioP1;P1;durP2;ratioP2;P2;SDS_P1;SDS_P2;PMS_P1;PMS_P2;Temp;Humidity;BMP_temperature;BMP_pressure;BME280_temperature;BME280_humidity;BME280_pressure;Samples;Min_cycle;Max_cycle;Signal;HPM_P1;HPM_P2
2022/05/24 00:00:58;;;;;;;0.20;0.20;;;17.10;99.90;;;;;;5040581;28;20666;-82
2022/05/24 00:03:23;;;;;;;0.33;0.33;;;17.20;99.90;;;;;;5057573;28;20706;-82
2022/05/24 00:05:49;;;;;;;1.03;0.30;;;17.20;99.90;;;;;;5057756;28;20177;-82
2022/05/24 00:08:15;;;;;;;0.13;0.13;;;17.10;99.90;;;;;;5039654;28;20205;-82
2022/05/24 00:10:41;;;;;;;0.20;0.20;;;17.20;99.90;;;;;;5057198;28;20182;-82
2022/05/24 00:13:08;;;;;;;0.10;0.10;;;17.20;99.90;;;;;;5040474;28;20174;-82
2022/05/24 00:15:34;;;;;;;0.17;0.17;;;17.20;99.90;;;;;;5057366;28;20210;-83
2022/05/24 00:18:04;;;;;;;0.10;0.10;;;17.30;99.90;;;;;;5039956;28;20726;-83
2022/05/24 00:20:34;;;;;;;0.20;0.20;;;17.40;99.90;;;;;;5056558;28;20614;-82
2022/05/24 00:23:00;;;;;;;0.20;0.17;;;17.50;99.90;;;;;;5038389;28;20177;-82
2022/05/24 00:25:27;;;;;;;0.20;0.20;;;17.60;99.90;;;;;;5054704;28;20251;-83
2022/05/24 00:27:53;;;;;;;0.53;0.40;;;17.60;99.90;;;;;;5040624;28;20209;-82
2022/05/24 00:30:19;;;;;;;0.20;0.20;;;17.70;99.90;;;;;;5071017;28;20186;-82
2022/05/24 00:32:45;;;;;;;0.27;0.27;;;17.70;99.90;;;;;;5058249;28;20188;-83
2022/05/24 00:35:11;;;;;;;0.10;0.10;;;17.70;99.90;;;;;;5070864;28;20659;-82
2022/05/24 00:37:40;;;;;;;0.33;0.33;;;17.80;99.90;;;;;;5038747;28;20239;-83
2022/05/24 00:40:09;;;;;;;0.23;0.23;;;17.80;99.90;;;;;;5035968;28;20209;-83
2022/05/24 00:42:37;;;;;;;0.30;0.30;;;17.90;99.90;;;;;;5037904;28;20188;-82
2022/05/24 00:45:17;;;;;;;0.30;0.30;;;17.80;99.90;;;;;;5056749;28;20181;-83
2022/05/24 00:47:54;;;;;;;0.30;0.30;;;17.80;99.90;;;;;;5055324;28;20197;-83
2022/05/24 00:50:36;;;;;;;0.23;0.23;;;17.80;99.90;;;;;;5036880;28;20185;-83
2022/05/24 00:53:26;;;;;;;0.20;0.20;;;17.80;99.90;;;;;;5067762;28;20209;-82
2022/05/24 00:56:10;;;;;;;0.30;0.30;;;17.80;99.90;;;;;;5038454;28;20300;-83
2022/05/24 00:58:55;;;;;;;0.30;0.30;;;17.60;99.90;;;;;;5056968;28;20202;-82
2022/05/24 01:01:27;;;;;;;0.40;0.40;;;17.60;99.90;;;;;;5058002;28;20201;-82
2022/05/24 01:03:52;;;;;;;0.23;0.23;;;17.60;99.90;;;;;;5055891;28;20652;-83
2022/05/24 01:06:18;;;;;;;0.40;0.40;;;17.60;99.90;;;;;;5057199;28;20868;-82
2022/05/24 01:08:44;;;;;;;0.50;0.50;;;17.60;99.90;;;;;;5071682;28;20817;-83
2022/05/24 01:11:11;;;;;;;0.20;0.20;;;17.60;99.90;;;;;;5058137;28;20201;-82
2022/05/24 01:13:38;;;;;;;0.40;0.33;;;17.50;99.90;;;;;;5073371;28;20208;-83
2022/05/24 01:16:05;;;;;;;0.27;0.27;;;17.40;99.90;;;;;;5055307;28;20270;-82
2022/05/24 01:18:30;;;;;;;1.50;0.20;;;17.30;99.90;;;;;;5036428;28;20206;-82
2022/05/24 01:21:03;;;;;;;0.30;0.30;;;17.20;99.90;;;;;;5056474;28;20225;-83
2022/05/24 01:23:56;;;;;;;0.47;0.20;;;17.10;99.90;;;;;;5057173;28;21259;-82
2022/05/24 01:26:54;;;;;;;0.20;0.20;;;17.10;99.90;;;;;;5054952;28;20196;-82
2022/05/24 01:29:21;;;;;;;1.23;0.43;;;17.10;99.90;;;;;;5056356;28;20208;-82
2022/05/24 01:37:19;;;;;;;0.20;0.20;;;17.20;99.90;;;;;;5057010;28;20258;-82
2022/05/24 01:39:50;;;;;;;0.40;0.40;;;17.10;99.90;;;;;;5054770;28;20368;-82
2022/05/24 01:42:17;;;;;;;0.27;0.27;;;17.00;99.90;;;;;;5038187;28;20176;-82
2022/05/24 01:44:57;;;;;;;0.30;0.30;;;17.00;99.90;;;;;;5039219;28;20192;-82
2022/05/24 01:47:24;;;;;;;4.47;0.40;;;16.90;99.90;;;;;;5055333;28;20795;-82
2022/05/24 01:49:58;;;;;;;0.83;0.30;;;16.90;99.90;;;;;;5055557;28;20238;-82
2022/05/24 01:52:33;;;;;;;0.50;0.50;;;16.90;99.90;;;;;;5036460;28;20261;-82
2022/05/24 01:55:06;;;;;;;0.13;0.13;;;16.80;99.90;;;;;;5057625;28;20192;-82
2022/05/24 01:57:39;;;;;;;0.10;0.10;;;16.80;99.90;;;;;;5037367;28;20210;-83
2022/05/24 02:00:08;;;;;;;0.30;0.30;;;16.80;99.90;;;;;;5057515;28;20199;-82
2022/05/24 02:02:34;;;;;;;1.10;0.40;;;16.70;99.90;;;;;;5056104;28;20265;-83
2022/05/24 02:04:59;;;;;;;0.10;0.10;;;16.60;99.90;;;;;;5036604;28;20257;-82
2022/05/24 02:07:26;;;;;;;0.30;0.30;;;16.60;99.90;;;;;;5055903;28;20239;-83
2022/05/24 02:09:55;;;;;;;0.20;0.20;;;16.40;99.90;;;;;;5039478;28;20209;-82
2022/05/24 02:12:45;;;;;;;0.10;0.10;;;16.40;99.90;;;;;;5037432;28;20254;-83
2022/05/24 02:15:17;;;;;;;0.40;0.40;;;16.40;99.90;;;;;;5039102;28;20175;-83
2022/05/24 02:17:56;;;;;;;0.20;0.20;;;16.30;99.90;;;;;;5037213;28;20216;-82
2022/05/24 02:20:27;;;;;;;0.70;0.70;;;16.40;99.90;;;;;;5054824;28;20200;-82
2022/05/24 02:22:53;;;;;;;0.30;0.30;;;16.50;99.90;;;;;;5054283;28;20200;-83
2022/05/24 02:25:29;;;;;;;0.27;0.27;;;16.60;99.90;;;;;;5053003;28;20261;-83
2022/05/24 02:27:55;;;;;;;1.33;0.67;;;16.50;99.90;;;;;;5068345;28;20204;-83
2022/05/24 02:30:24;;;;;;;0.20;0.20;;;16.50;99.90;;;;;;5036893;28;20210;-83
2022/05/24 02:32:50;;;;;;;0.10;0.10;;;16.40;99.90;;;;;;5038275;28;20192;-83
2022/05/24 02:35:16;;;;;;;0.10;0.10;;;16.30;99.90;;;;;;5038741;28;20181;-83
2022/05/24 02:37:42;;;;;;;0.30;0.30;;;16.20;99.90;;;;;;5056711;28;20204;-83
2022/05/24 02:42:53;;;;;;;0.93;0.30;;;16.20;99.90;;;;;;5054523;28;20223;-82
2022/05/24 02:45:19;;;;;;;0.10;0.10;;;16.30;99.90;;;;;;5035283;28;20661;-82
2022/05/24 02:47:44;;;;;;;0.30;0.30;;;16.30;99.90;;;;;;5054083;28;20217;-82
2022/05/24 02:50:11;;;;;;;0.40;0.30;;;16.40;99.90;;;;;;5036272;28;20680;-83
2022/05/24 02:52:37;;;;;;;0.13;0.13;;;16.30;99.90;;;;;;5037365;28;20243;-82
2022/05/24 02:55:05;;;;;;;0.37;0.37;;;16.30;99.90;;;;;;5035271;28;20799;-82
2022/05/24 02:57:30;;;;;;;0.33;0.33;;;16.40;99.90;;;;;;5035213;28;20203;-82
2022/05/24 02:59:56;;;;;;;0.20;0.20;;;16.40;99.90;;;;;;5035399;28;20208;-83
2022/05/24 03:02:21;;;;;;;0.20;0.20;;;16.40;99.90;;;;;;5067473;28;20192;-82
2022/05/24 03:04:47;;;;;;;0.23;0.23;;;16.40;99.90;;;;;;5054410;28;20192;-82
2022/05/24 03:09:57;;;;;;;0.40;0.40;;;16.50;99.90;;;;;;5057188;28;20219;-83
2022/05/24 03:15:07;;;;;;;0.33;0.33;;;16.50;99.90;;;;;;5051269;28;20188;-82
2022/05/24 03:17:33;;;;;;;0.67;0.60;;;16.50;99.90;;;;;;5068531;28;20266;-83
2022/05/24 03:19:58;;;;;;;0.20;0.20;;;16.50;99.90;;;;;;5054713;28;20992;-82
2022/05/24 03:22:24;;;;;;;0.43;0.30;;;16.50;99.90;;;;;;5035709;28;20265;-82
2022/05/24 03:24:50;;;;;;;0.30;0.30;;;16.50;99.90;;;;;;5033962;28;20210;-82
2022/05/24 03:27:16;;;;;;;0.37;0.37;;;16.50;99.90;;;;;;5034535;28;20193;-83
2022/05/24 03:29:43;;;;;;;0.43;0.43;;;16.60;99.90;;;;;;5052813;28;20610;-83
2022/05/24 03:32:11;;;;;;;0.43;0.33;;;16.70;99.90;;;;;;5056960;28;20196;-83
2022/05/24 03:34:38;;;;;;;0.10;0.10;;;16.70;99.90;;;;;;5054297;28;20266;-83
2022/05/24 03:37:04;;;;;;;0.37;0.20;;;16.70;99.90;;;;;;5035870;28;20316;-83
2022/05/24 03:39:29;;;;;;;0.97;0.90;;;16.70;99.90;;;;;;5036658;28;20248;-82
2022/05/24 03:41:55;;;;;;;0.40;0.40;;;16.80;99.90;;;;;;5033700;28;20196;-83
2022/05/24 03:44:20;;;;;;;0.23;0.23;;;16.80;99.90;;;;;;5055720;28;20180;-82
2022/05/24 03:46:46;;;;;;;0.20;0.20;;;16.80;99.90;;;;;;5051216;28;20216;-82
2022/05/24 03:49:14;;;;;;;0.40;0.40;;;16.80;99.90;;;;;;5053407;28;20184;-83
2022/05/24 03:51:40;;;;;;;0.67;0.67;;;16.80;99.90;;;;;;5051122;28;20570;-82
2022/05/24 03:54:06;;;;;;;0.43;0.20;;;16.80;99.90;;;;;;5035101;28;20192;-82
2022/05/24 03:56:33;;;;;;;0.40;0.40;;;16.90;99.90;;;;;;5051149;28;20311;-82
2022/05/24 03:58:58;;;;;;;1.33;0.67;;;17.00;99.90;;;;;;5036376;28;20193;-82
2022/05/24 04:01:24;;;;;;;0.33;0.33;;;17.00;99.90;;;;;;5053549;28;20259;-82
2022/05/24 04:03:49;;;;;;;0.30;0.30;;;17.00;99.90;;;;;;5054043;28;20300;-82
2022/05/24 04:06:15;;;;;;;1.87;0.60;;;17.10;99.90;;;;;;5034099;28;20200;-83
2022/05/24 04:08:41;;;;;;;0.53;0.53;;;17.10;99.90;;;;;;5056518;28;20217;-82
2022/05/24 04:11:09;;;;;;;0.93;0.93;;;17.10;99.90;;;;;;5055874;28;20205;-82
2022/05/24 04:13:39;;;;;;;0.50;0.50;;;17.10;99.90;;;;;;5035847;28;20198;-82
2022/05/24 04:16:05;;;;;;;0.47;0.47;;;17.10;99.90;;;;;;5038694;28;20654;-82
2022/05/24 04:18:31;;;;;;;0.40;0.40;;;17.10;99.90;;;;;;5037395;28;20205;-83
2022/05/24 04:20:57;;;;;;;0.50;0.50;;;17.00;99.90;;;;;;5035189;28;20542;-82
2022/05/24 04:23:25;;;;;;;0.30;0.30;;;17.10;99.90;;;;;;5036612;28;20178;-83
2022/05/24 04:25:51;;;;;;;0.37;0.37;;;17.10;99.90;;;;;;5038029;28;20196;-82
2022/05/24 04:28:18;;;;;;;1.37;0.90;;;17.20;99.90;;;;;;5056413;28;20216;-83
2022/05/24 04:30:46;;;;;;;1.70;0.70;;;17.20;99.90;;;;;;5055801;28;20238;-83
2022/05/24 04:33:12;;;;;;;0.60;0.60;;;17.20;99.90;;;;;;5055712;28;20189;-82
2022/05/24 04:35:38;;;;;;;0.43;0.43;;;17.20;99.90;;;;;;5071893;28;20185;-82
2022/05/24 04:38:03;;;;;;;0.50;0.50;;;17.20;99.90;;;;;;5056202;28;20215;-83
2022/05/24 04:43:13;;;;;;;1.30;0.43;;;17.10;99.90;;;;;;5055477;28;20712;-84
2022/05/24 04:45:39;;;;;;;0.70;0.70;;;17.20;99.90;;;;;;5055028;28;20177;-82
2022/05/24 04:48:06;;;;;;;0.30;0.30;;;17.00;99.90;;;;;;5056858;28;20202;-82
2022/05/24 04:50:33;;;;;;;0.53;0.53;;;17.00;99.90;;;;;;5036442;28;20216;-83
2022/05/24 04:52:59;;;;;;;1.80;0.87;;;17.10;99.90;;;;;;5036093;28;20185;-84
2022/05/24 04:55:26;;;;;;;2.17;2.03;;;17.10;99.90;;;;;;5021819;28;20559;-84
2022/05/24 04:57:53;;;;;;;0.70;0.70;;;17.20;99.90;;;;;;5056613;28;20231;-84
2022/05/24 05:00:20;;;;;;;0.30;0.30;;;17.20;99.90;;;;;;5055391;28;20682;-84
2022/05/24 05:02:46;;;;;;;0.40;0.40;;;17.30;99.90;;;;;;5055121;28;20178;-83
2022/05/24 05:05:13;;;;;;;0.40;0.40;;;17.20;99.90;;;;;;5056695;28;20188;-83
2022/05/24 05:07:39;;;;;;;0.47;0.47;;;17.20;99.90;;;;;;5056075;28;20291;-83
2022/05/24 05:10:06;;;;;;;0.57;0.57;;;17.20;99.90;;;;;;5036349;28;20189;-84
2022/05/24 05:12:31;;;;;;;0.50;0.50;;;17.30;99.90;;;;;;5038342;28;21191;-84
2022/05/24 05:14:57;;;;;;;0.70;0.60;;;17.30;99.90;;;;;;5056460;28;20205;-83
2022/05/24 05:17:23;;;;;;;0.30;0.30;;;17.30;99.90;;;;;;5036782;28;20231;-83
2022/05/24 05:19:49;;;;;;;0.63;0.60;;;17.20;99.90;;;;;;5051245;28;20213;-83
2022/05/24 05:22:16;;;;;;;0.43;0.40;;;17.20;99.90;;;;;;5041772;28;20732;-84
2022/05/24 05:24:41;;;;;;;0.83;0.77;;;17.10;99.90;;;;;;5058398;28;20307;-84
2022/05/24 05:27:07;;;;;;;0.63;0.63;;;17.10;99.90;;;;;;5041745;28;20802;-82
2022/05/24 05:32:26;;;;;;;0.40;0.40;;;16.90;99.90;;;;;;5056974;28;20784;-82
2022/05/24 05:34:53;;;;;;;0.43;0.33;;;16.80;99.90;;;;;;5058465;28;20599;-82
2022/05/24 05:37:19;;;;;;;0.87;0.87;;;16.70;99.90;;;;;;5055965;28;20204;-82
2022/05/24 05:39:45;;;;;;;0.87;0.87;;;16.60;99.90;;;;;;5040361;28;20217;-82
2022/05/24 05:42:11;;;;;;;0.40;0.40;;;16.50;99.90;;;;;;5039337;28;20208;-82
2022/05/24 05:44:37;;;;;;;0.50;0.50;;;16.50;99.90;;;;;;5037790;28;20279;-82
2022/05/24 05:47:03;;;;;;;0.40;0.40;;;16.40;99.90;;;;;;5055519;28;20219;-83
2022/05/24 05:49:29;;;;;;;0.27;0.27;;;16.30;99.90;;;;;;5059579;28;20576;-83
2022/05/24 05:51:55;;;;;;;0.10;0.10;;;16.30;99.90;;;;;;5057313;28;20192;-82
2022/05/24 05:54:21;;;;;;;0.40;0.30;;;16.30;99.90;;;;;;5054972;28;20188;-83
2022/05/24 05:56:47;;;;;;;0.20;0.20;;;16.30;99.90;;;;;;5070225;28;20214;-83
2022/05/24 05:59:13;;;;;;;0.20;0.20;;;16.20;99.90;;;;;;5053632;28;20185;-83
2022/05/24 06:01:38;;;;;;;0.27;0.27;;;16.10;99.90;;;;;;5039496;28;20722;-83
2022/05/24 06:04:04;;;;;;;0.20;0.20;;;15.90;99.90;;;;;;5054977;28;20215;-83
2022/05/24 06:06:34;;;;;;;0.10;0.10;;;15.80;99.90;;;;;;5035737;28;20655;-83
2022/05/24 06:09:00;;;;;;;0.20;0.20;;;15.70;99.90;;;;;;5055476;28;20610;-83
2022/05/24 06:11:25;;;;;;;0.10;0.10;;;15.60;99.90;;;;;;5039461;28;20207;-83
2022/05/24 06:13:51;;;;;;;0.37;0.37;;;15.70;99.90;;;;;;5037510;28;20196;-83
2022/05/24 06:16:18;;;;;;;0.87;0.30;;;16.00;99.90;;;;;;5059328;28;20194;-83
2022/05/24 06:18:43;;;;;;;2.27;1.43;;;16.10;99.90;;;;;;5034633;28;20318;-84
2022/05/24 06:21:09;;;;;;;0.10;0.10;;;16.20;99.90;;;;;;5055098;28;20224;-83
2022/05/24 06:23:35;;;;;;;0.20;0.20;;;16.40;99.90;;;;;;5072076;28;20215;-83
2022/05/24 06:26:01;;;;;;;0.20;0.20;;;16.50;99.90;;;;;;5037836;28;20657;-83
2022/05/24 06:28:26;;;;;;;0.13;0.13;;;16.70;99.90;;;;;;5056422;28;20245;-84
2022/05/24 06:30:52;;;;;;;0.30;0.30;;;16.80;99.90;;;;;;5039537;28;20189;-83
2022/05/24 06:33:18;;;;;;;0.20;0.20;;;16.80;99.90;;;;;;5039233;28;20278;-83
2022/05/24 06:35:44;;;;;;;0.17;0.17;;;16.70;99.90;;;;;;5038931;28;20261;-83
2022/05/24 06:38:09;;;;;;;0.10;0.10;;;16.60;99.90;;;;;;5056885;28;20220;-83
2022/05/24 06:40:35;;;;;;;0.20;0.20;;;16.60;99.90;;;;;;5056885;28;20215;-83
2022/05/24 06:43:02;;;;;;;0.20;0.20;;;16.60;99.90;;;;;;5037322;28;20650;-84
2022/05/24 06:45:29;;;;;;;0.10;0.10;;;16.60;99.90;;;;;;5055523;28;20188;-83
2022/05/24 06:47:54;;;;;;;0.47;0.20;;;16.60;99.90;;;;;;5057138;28;20235;-83
2022/05/24 06:50:20;;;;;;;0.23;0.23;;;16.60;99.90;;;;;;5052286;28;20213;-84
2022/05/24 06:52:47;;;;;;;0.20;0.20;;;16.60;99.90;;;;;;5038633;28;20208;-83
2022/05/24 06:55:13;;;;;;;1.40;0.73;;;16.60;99.90;;;;;;5036136;28;20188;-83
2022/05/24 06:57:39;;;;;;;0.17;0.17;;;16.50;99.90;;;;;;5054194;28;20956;-83
2022/05/24 07:03:02;;;;;;;0.20;0.20;;;16.60;99.90;;;;;;5051324;28;20187;-83
2022/05/24 07:05:29;;;;;;;0.20;0.20;;;16.50;99.90;;;;;;5037151;28;20178;-84
2022/05/24 07:07:56;;;;;;;0.20;0.20;;;16.60;99.90;;;;;;5053388;28;20208;-84
2022/05/24 07:10:22;;;;;;;0.93;0.93;;;16.60;99.90;;;;;;5034731;28;20246;-84
2022/05/24 07:13:01;;;;;;;0.10;0.10;;;16.70;99.90;;;;;;5032929;28;20192;-83
2022/05/24 07:15:27;;;;;;;0.10;0.10;;;17.10;99.90;;;;;;5030193;28;20619;-84
2022/05/24 07:17:53;;;;;;;0.20;0.20;;;17.60;99.90;;;;;;5034198;28;20232;-82
2022/05/24 07:20:19;;;;;;;0.20;0.20;;;17.80;99.90;;;;;;5032532;28;20821;-82
2022/05/24 07:22:44;;;;;;;0.20;0.20;;;17.80;99.90;;;;;;5032403;28;20244;-81
2022/05/24 07:25:10;;;;;;;0.20;0.20;;;18.00;99.90;;;;;;5032120;28;20213;-81
2022/05/24 07:27:36;;;;;;;0.10;0.10;;;17.80;99.90;;;;;;5050899;28;20235;-81
2022/05/24 07:30:04;;;;;;;0.10;0.10;;;17.90;99.90;;;;;;5032823;28;20213;-81
2022/05/24 07:32:31;;;;;;;0.10;0.10;;;18.00;99.90;;;;;;5050190;28;20251;-82
2022/05/24 07:34:59;;;;;;;0.10;0.10;;;17.90;99.90;;;;;;5033315;28;20285;-82
2022/05/24 07:37:25;;;;;;;0.10;0.10;;;18.00;99.90;;;;;;5052194;28;20298;-82
2022/05/24 07:45:47;;;;;;;0.10;0.10;;;18.20;99.90;;;;;;5034745;28;20240;-84
2022/05/24 07:48:05;;;;;;;0.87;0.50;;;18.80;99.90;;;;;;5046295;28;20311;-84
2022/05/24 07:50:30;;;;;;;0.50;0.10;;;19.00;99.90;;;;;;5030512;28;20189;-83
2022/05/24 07:52:56;;;;;;;0.10;0.10;;;18.90;99.90;;;;;;5055028;28;20818;-82
2022/05/24 07:55:21;;;;;;;0.10;0.10;;;18.90;99.90;;;;;;5034254;28;20241;-81
2022/05/24 07:57:47;;;;;;;0.10;0.10;;;18.90;99.90;;;;;;5052536;28;20614;-83
2022/05/24 08:00:13;;;;;;;0.10;0.10;;;19.00;99.90;;;;;;5041947;28;20844;-83
2022/05/24 08:02:38;;;;;;;0.10;0.10;;;19.00;99.90;;;;;;5040990;28;21213;-83
2022/05/24 08:05:05;;;;;;;0.10;0.10;;;19.20;99.90;;;;;;5057446;28;20193;-83
2022/05/24 08:07:31;;;;;;;0.10;0.10;;;19.30;99.90;;;;;;5059880;28;20202;-83
2022/05/24 08:09:57;;;;;;;0.10;0.10;;;19.20;99.90;;;;;;5058665;28;20208;-83
2022/05/24 08:12:23;;;;;;;0.10;0.10;;;19.10;99.90;;;;;;5038876;28;20189;-83
2022/05/24 08:14:48;;;;;;;0.10;0.10;;;19.10;99.90;;;;;;5059098;28;20195;-83
2022/05/24 08:17:14;;;;;;;0.30;0.30;;;19.20;99.90;;;;;;5040008;28;20233;-83
2022/05/24 08:19:39;;;;;;;0.10;0.10;;;19.40;99.90;;;;;;5057810;28;20191;-83
2022/05/24 08:22:06;;;;;;;0.10;0.10;;;19.60;99.90;;;;;;5059157;28;20193;-83
2022/05/24 08:24:32;;;;;;;0.10;0.10;;;19.90;99.90;;;;;;5058842;28;20214;-83
2022/05/24 08:26:57;;;;;;;0.30;0.30;;;19.70;99.90;;;;;;5059100;28;20649;-83
2022/05/24 08:29:23;;;;;;;0.10;0.10;;;19.50;99.90;;;;;;5040499;28;20184;-83
2022/05/24 08:31:49;;;;;;;0.20;0.20;;;19.50;99.90;;;;;;5059166;28;20201;-83
2022/05/24 08:34:16;;;;;;;0.10;0.10;;;19.30;99.90;;;;;;5058144;28;20189;-83
2022/05/24 08:36:42;;;;;;;0.20;0.20;;;19.30;99.90;;;;;;5039943;28;20207;-83
2022/05/24 08:39:07;;;;;;;0.30;0.30;;;19.00;99.90;;;;;;5058978;28;20193;-83
2022/05/24 08:41:45;;;;;;;0.13;0.13;;;19.20;99.90;;;;;;5059174;28;20204;-83
2022/05/24 08:50:15;;;;;;;0.20;0.20;;;19.10;99.90;;;;;;5050267;28;20243;-83
2022/05/24 08:53:04;;;;;;;0.30;0.30;;;18.90;99.90;;;;;;5053035;28;20205;-83
2022/05/24 08:55:32;;;;;;;0.10;0.10;;;19.00;99.90;;;;;;5058107;28;20190;-83
2022/05/24 08:57:59;;;;;;;0.10;0.10;;;19.00;99.90;;;;;;5035973;28;20307;-83
2022/05/24 09:00:38;;;;;;;0.20;0.20;;;19.00;99.90;;;;;;5052795;28;20341;-83
2022/05/24 09:03:06;;;;;;;0.20;0.20;;;19.10;99.90;;;;;;5033253;28;20678;-81
2022/05/24 09:05:36;;;;;;;0.13;0.13;;;19.10;99.90;;;;;;5052114;28;20653;-80
2022/05/24 09:08:10;;;;;;;0.20;0.20;;;19.10;99.90;;;;;;5036760;28;20228;-80
2022/05/24 09:11:08;;;;;;;0.10;0.10;;;19.30;99.90;;;;;;5052360;28;20212;-82
2022/05/24 09:13:52;;;;;;;0.30;0.30;;;19.80;99.90;;;;;;5056627;28;20181;-82
2022/05/24 09:16:18;;;;;;;0.10;0.10;;;19.70;99.90;;;;;;5036017;28;20216;-82
2022/05/24 09:19:17;;;;;;;0.40;0.10;;;19.60;99.90;;;;;;5056376;28;20208;-82
2022/05/24 09:21:44;;;;;;;0.10;0.10;;;19.70;99.90;;;;;;5022890;28;20228;-82
2022/05/24 09:24:16;;;;;;;0.20;0.20;;;19.80;99.90;;;;;;5055613;28;20297;-84
2022/05/24 09:27:21;;;;;;;0.13;0.13;;;19.70;99.90;;;;;;5038929;28;20205;-84
2022/05/24 09:30:34;;;;;;;0.10;0.10;;;19.70;99.90;;;;;;5037521;28;20203;-84
2022/05/24 09:33:24;;;;;;;0.10;0.10;;;20.00;99.90;;;;;;5032838;28;20211;-84
2022/05/24 09:35:59;;;;;;;0.10;0.10;;;19.90;99.90;;;;;;5034679;28;20194;-84
2022/05/24 09:38:37;;;;;;;0.20;0.20;;;19.80;99.90;;;;;;5052677;28;20301;-84
2022/05/24 09:41:23;;;;;;;0.10;0.10;;;19.90;99.90;;;;;;5034616;28;20213;-80
2022/05/24 09:44:06;;;;;;;0.40;0.40;;;20.10;99.90;;;;;;5054874;28;20201;-82
2022/05/24 09:46:32;;;;;;;0.30;0.30;;;20.20;99.90;;;;;;5056122;28;21341;-81
2022/05/24 09:49:23;;;;;;;0.10;0.10;;;20.60;99.90;;;;;;5039924;28;20258;-81
2022/05/24 09:51:54;;;;;;;0.20;0.20;;;20.90;99.90;;;;;;5054491;28;20184;-81
2022/05/24 09:54:24;;;;;;;0.20;0.20;;;21.00;99.90;;;;;;5052446;28;20182;-80
2022/05/24 09:57:09;;;;;;;2.60;0.30;;;21.10;99.90;;;;;;5036251;28;20209;-80
2022/05/24 09:59:39;;;;;;;0.10;0.10;;;20.90;99.90;;;;;;5033482;28;20259;-80
2022/05/24 10:02:36;;;;;;;0.10;0.10;;;20.80;99.90;;;;;;5036421;28;20195;-80
2022/05/24 10:05:11;;;;;;;0.20;0.20;;;20.60;99.90;;;;;;5022826;28;20204;-81
2022/05/24 10:07:39;;;;;;;0.10;0.10;;;21.00;99.90;;;;;;5068781;28;20234;-80
2022/05/24 10:10:19;;;;;;;0.30;0.30;;;20.70;99.90;;;;;;5054008;28;20219;-81
2022/05/24 10:13:00;;;;;;;1.03;0.60;;;20.90;99.90;;;;;;5070077;28;20192;-80
2022/05/24 10:15:40;;;;;;;0.13;0.13;;;20.30;99.90;;;;;;5055306;28;20181;-80
2022/05/24 10:18:17;;;;;;;0.10;0.10;;;20.50;99.90;;;;;;5039267;28;20632;-84
2022/05/24 10:20:52;;;;;;;0.10;0.10;;;20.40;99.90;;;;;;5051738;28;20755;-83
2022/05/24 10:23:41;;;;;;;0.20;0.20;;;20.10;99.90;;;;;;5035922;28;20196;-83
2022/05/24 10:26:19;;;;;;;0.43;0.43;;;20.10;99.90;;;;;;5028960;28;20194;-82
2022/05/24 10:29:04;;;;;;;0.30;0.20;;;20.30;99.90;;;;;;5054760;28;20266;-82
2022/05/24 10:31:45;;;;;;;0.13;0.13;;;20.20;99.90;;;;;;5050479;28;20284;-83
2022/05/24 10:40:59;;;;;;;0.17;0.17;;;20.40;99.90;;;;;;5056628;28;20710;-83
2022/05/24 10:44:12;;;;;;;0.10;0.10;;;20.30;99.90;;;;;;5038302;28;20180;-82
2022/05/24 10:46:49;;;;;;;0.30;0.30;;;20.30;99.90;;;;;;5007394;28;20202;-82
2022/05/24 10:49:18;;;;;;;0.40;0.30;;;20.20;99.90;;;;;;5036628;28;20173;-82
2022/05/24 10:51:52;;;;;;;0.33;0.30;;;20.50;99.90;;;;;;5031451;28;20187;-83
2022/05/24 10:54:50;;;;;;;0.33;0.33;;;21.10;99.90;;;;;;5055798;28;20181;-82
2022/05/24 10:57:23;;;;;;;0.10;0.10;;;21.10;99.90;;;;;;5039096;28;20236;-82
2022/05/24 11:00:13;;;;;;;0.10;0.10;;;21.10;99.90;;;;;;5038050;28;20691;-83
2022/05/24 11:02:47;;;;;;;0.10;0.10;;;20.80;99.90;;;;;;5032029;28;20177;-83
2022/05/24 11:05:16;;;;;;;0.10;0.10;;;20.30;99.90;;;;;;5051497;28;20187;-82
2022/05/24 11:07:41;;;;;;;0.10;0.10;;;20.00;99.90;;;;;;5033268;28;20202;-82
2022/05/24 11:10:36;;;;;;;0.10;0.10;;;19.80;99.90;;;;;;5051460;28;20261;-83
2022/05/24 11:13:16;;;;;;;0.20;0.20;;;19.80;99.90;;;;;;5034010;28;20678;-82
2022/05/24 11:15:51;;;;;;;0.10;0.10;;;19.90;99.90;;;;;;5037013;28;20190;-83
2022/05/24 11:18:21;;;;;;;0.30;0.30;;;19.80;99.90;;;;;;5053682;28;20201;-83
2022/05/24 11:21:12;;;;;;;0.10;0.10;;;20.00;99.90;;;;;;5053106;28;20209;-82
2022/05/24 11:24:02;;;;;;;0.13;0.13;;;20.20;99.90;;;;;;5052833;28;20181;-83
2022/05/24 11:26:35;;;;;;;0.13;0.13;;;20.50;99.90;;;;;;5059222;28;20238;-82
2022/05/24 11:29:47;;;;;;;0.20;0.20;;;20.90;99.90;;;;;;5041772;28;20174;-83
2022/05/24 11:32:35;;;;;;;0.20;0.20;;;21.40;99.90;;;;;;4995712;28;20182;-83
2022/05/24 11:35:12;;;;;;;0.20;0.20;;;21.40;99.90;;;;;;4999087;28;20190;-83
2022/05/24 11:37:41;;;;;;;0.30;0.30;;;21.60;99.90;;;;;;5040596;28;20504;-83
2022/05/24 11:40:34;;;;;;;0.10;0.10;;;21.20;99.90;;;;;;5040041;28;20725;-83
2022/05/24 11:43:12;;;;;;;0.83;0.63;;;21.00;99.90;;;;;;5037932;28;20658;-82
2022/05/24 11:45:38;;;;;;;0.20;0.20;;;20.90;99.90;;;;;;5056070;28;21774;-83
2022/05/24 11:48:07;;;;;;;0.20;0.20;;;20.70;99.90;;;;;;5040098;28;20205;-82
2022/05/24 11:50:43;;;;;;;0.30;0.30;;;20.80;99.90;;;;;;5060987;28;20192;-82
2022/05/24 11:53:17;;;;;;;0.77;0.30;;;21.00;99.90;;;;;;5063580;28;20184;-82
2022/05/24 11:55:57;;;;;;;0.27;0.27;;;21.40;99.90;;;;;;5046434;28;20249;-82
2022/05/24 11:58:22;;;;;;;0.20;0.20;;;21.70;99.90;;;;;;5044825;28;20294;-82
2022/05/24 12:01:30;;;;;;;0.30;0.30;;;21.90;99.90;;;;;;5042286;28;20225;-82
2022/05/24 12:10:22;;;;;;;1.03;0.30;;;21.70;99.90;;;;;;5060976;28;20296;-82
2022/05/24 12:13:02;;;;;;;0.20;0.20;;;21.50;99.90;;;;;;5061467;28;20552;-83
2022/05/24 12:15:30;;;;;;;0.20;0.20;;;21.40;99.90;;;;;;5062728;28;20177;-83
2022/05/24 12:17:58;;;;;;;0.10;0.10;;;21.90;99.90;;;;;;5055145;28;20783;-83
2022/05/24 12:20:47;;;;;;;0.10;0.10;;;22.10;99.90;;;;;;5037056;28;20230;-83
2022/05/24 12:23:15;;;;;;;0.20;0.20;;;21.80;99.90;;;;;;5038619;28;20242;-82
2022/05/24 12:26:03;;;;;;;0.13;0.13;;;21.70;99.90;;;;;;5043335;28;20207;-83
2022/05/24 12:28:37;;;;;;;0.40;0.40;;;21.80;99.90;;;;;;5042893;28;20194;-83
2022/05/24 12:31:16;;;;;;;0.10;0.10;;;22.00;99.90;;;;;;5062002;28;20248;-83
2022/05/24 12:33:59;;;;;;;0.10;0.10;;;21.90;99.90;;;;;;5043251;28;20177;-83
2022/05/24 12:36:36;;;;;;;0.10;0.10;;;21.40;99.90;;;;;;5038786;28;20180;-83
2022/05/24 12:39:02;;;;;;;0.30;0.20;;;21.20;99.90;;;;;;5057210;28;20196;-83
2022/05/24 12:41:40;;;;;;;0.30;0.30;;;21.10;99.90;;;;;;5058103;28;20198;-83
2022/05/24 12:44:21;;;;;;;0.20;0.20;;;21.20;99.90;;;;;;5056644;28;20181;-83
2022/05/24 12:47:05;;;;;;;0.10;0.10;;;21.50;99.90;;;;;;5056895;28;20201;-83
2022/05/24 12:49:33;;;;;;;0.20;0.20;;;21.80;99.90;;;;;;5041168;28;20181;-83
2022/05/24 12:52:13;;;;;;;0.10;0.10;;;21.80;99.90;;;;;;5057800;28;20433;-83
2022/05/24 12:54:49;;;;;;;0.20;0.20;;;21.90;99.90;;;;;;5058168;28;20184;-83
2022/05/24 12:57:18;;;;;;;0.10;0.10;;;22.00;99.90;;;;;;5057096;28;20220;-83
2022/05/24 12:59:59;;;;;;;0.10;0.10;;;22.00;99.90;;;;;;5047405;28;20737;-83
2022/05/24 13:02:35;;;;;;;0.40;0.40;;;22.10;99.90;;;;;;5038370;28;20185;-83
2022/05/24 13:05:15;;;;;;;0.20;0.20;;;22.00;99.90;;;;;;5038893;28;20190;-84
2022/05/24 13:07:57;;;;;;;0.40;0.40;;;21.80;99.90;;;;;;5038234;28;20551;-84
2022/05/24 13:10:27;;;;;;;0.17;0.17;;;21.60;99.90;;;;;;5057313;28;20186;-83
2022/05/24 13:13:18;;;;;;;0.10;0.10;;;21.60;99.90;;;;;;5058891;28;20174;-83
2022/05/24 13:15:59;;;;;;;0.30;0.23;;;22.10;99.90;;;;;;5039457;28;20170;-83
2022/05/24 13:18:26;;;;;;;2.07;1.47;;;22.30;99.90;;;;;;5058159;28;20207;-83
2022/05/24 13:20:58;;;;;;;0.17;0.17;;;22.20;99.90;;;;;;5058181;28;20197;-83
2022/05/24 13:23:35;;;;;;;0.20;0.20;;;22.40;99.90;;;;;;5039607;28;20265;-84
2022/05/24 13:26:04;;;;;;;0.17;0.17;;;22.30;99.90;;;;;;5057940;28;20213;-83
2022/05/24 13:28:53;;;;;;;0.10;0.10;;;22.10;99.90;;;;;;5057392;28;20193;-84
2022/05/24 13:34:14;;;;;;;5.83;0.30;;;22.30;99.90;;;;;;5056250;28;20192;-83
2022/05/24 13:36:50;;;;;;;0.20;0.20;;;22.50;99.90;;;;;;5056815;28;20177;-83
2022/05/24 13:39:16;;;;;;;0.73;0.47;;;22.40;99.90;;;;;;5071909;28;21256;-84
2022/05/24 13:42:17;;;;;;;0.37;0.20;;;22.40;99.90;;;;;;5038360;28;20194;-83
2022/05/24 13:45:21;;;;;;;0.40;0.20;;;22.30;99.90;;;;;;5057208;28;20244;-83
2022/05/24 13:47:48;;;;;;;0.57;0.30;;;22.60;99.90;;;;;;5053172;28;20218;-84
2022/05/24 13:50:31;;;;;;;0.10;0.10;;;22.40;99.90;;;;;;5052305;28;20177;-83
2022/05/24 13:53:00;;;;;;;0.20;0.20;;;22.40;99.90;;;;;;5035311;28;20196;-83
2022/05/24 13:55:52;;;;;;;0.20;0.20;;;22.30;99.90;;;;;;5054459;28;20247;-83
2022/05/24 13:58:18;;;;;;;0.20;0.20;;;22.40;99.90;;;;;;5056054;28;20202;-83
2022/05/24 14:00:51;;;;;;;0.20;0.20;;;22.20;99.90;;;;;;5050795;28;20549;-83